Time;durP1;ratioP1;P1;durP2;ratioP2;P2;SDS_P1;SDS_P2;PMS_P1;PMS_P2;Temp;Humidity;BMP_temperature;BMP_pressure;BME280_temperature;BME280_humidity;BME280_pressure;Samples;Min_cycle;Max_cycle;Signal;HPM_P1;HPM_P2
2023/12/30 00:01:47;;;;;;;127.95;68.47;;;;;;;;;;5010110;28;20026;-69
2023/12/30 00:04:14;;;;;;;141.93;73.10;;;;;;;;;;4991128;28;20038;-69
2023/12/30 00:06:41;;;;;;;138.02;76.30;;;;;;;;;;4990812;28;20123;-68
2023/12/30 00:09:06;;;;;;;132.88;73.97;;;;;;;;;;4993949;28;20038;-69
2023/12/30 00:11:32;;;;;;;139.23;75.53;;;;;;;;;;4994129;28;20060;-70
2023/12/30 00:13:58;;;;;;;128.70;70.18;;;;;;;;;;4992761;28;20075;-70
2023/12/30 00:16:26;;;;;;;142.98;75.75;;;;;;;;;;4993230;28;20042;-69
2023/12/30 00:18:52;;;;;;;142.68;78.70;;;;;;;;;;4993841;28;20492;-70
2023/12/30 00:21:19;;;;;;;142.75;78.93;;;;;;;;;;4993049;28;20118;-69
2023/12/30 00:23:45;;;;;;;128.15;70.63;;;;;;;;;;4993685;28;20053;-69
2023/12/30 00:26:24;;;;;;;126.95;70.47;;;;;;;;;;4993867;28;20501;-69
2023/12/30 00:29:03;;;;;;;135.90;78.28;;;;;;;;;;4974306;28;20410;-69
2023/12/30 00:31:30;;;;;;;128.15;72.85;;;;;;;;;;4987930;28;20030;-69
2023/12/30 00:33:58;;;;;;;133.18;68.95;;;;;;;;;;4991465;28;20026;-69
2023/12/30 00:36:24;;;;;;;133.73;74.13;;;;;;;;;;4992233;28;20038;-69
2023/12/30 00:38:53;;;;;;;146.57;81.45;;;;;;;;;;4993790;28;20034;-69
2023/12/30 00:41:18;;;;;;;135.75;76.15;;;;;;;;;;4991986;28;20026;-69
2023/12/30 00:43:44;;;;;;;137.73;74.40;;;;;;;;;;4991701;28;20034;-69
2023/12/30 00:46:10;;;;;;;134.73;75.72;;;;;;;;;;4993918;28;20081;-70
2023/12/30 00:48:35;;;;;;;132.10;74.32;;;;;;;;;;4986074;28;20105;-69
2023/12/30 00:51:01;;;;;;;144.70;75.95;;;;;;;;;;4992409;28;20034;-69
2023/12/30 00:53:30;;;;;;;137.55;74.20;;;;;;;;;;4992289;28;20377;-69
2023/12/30 00:55:56;;;;;;;132.07;72.10;;;;;;;;;;4990012;28;20050;-69
2023/12/30 00:58:23;;;;;;;118.20;67.35;;;;;;;;;;4990096;28;20132;-69
2023/12/30 01:00:49;;;;;;;129.57;71.32;;;;;;;;;;4992890;28;20350;-69
2023/12/30 01:03:15;;;;;;;119.90;68.25;;;;;;;;;;4991877;28;20022;-70
2023/12/30 01:05:40;;;;;;;125.10;66.80;;;;;;;;;;4975159;28;20345;-70
2023/12/30 01:08:06;;;;;;;125.47;65.82;;;;;;;;;;4991606;28;20045;-70
2023/12/30 01:10:32;;;;;;;143.07;74.65;;;;;;;;;;4993030;28;20033;-69
2023/12/30 01:12:58;;;;;;;136.77;74.38;;;;;;;;;;4991387;28;20508;-69
2023/12/30 01:15:23;;;;;;;110.38;59.83;;;;;;;;;;4984907;28;20101;-69
2023/12/30 01:17:49;;;;;;;90.35;49.45;;;;;;;;;;4989168;28;20126;-69
2023/12/30 01:20:15;;;;;;;94.22;53.63;;;;;;;;;;4992996;28;20058;-69
2023/12/30 01:22:41;;;;;;;105.07;57.38;;;;;;;;;;4993186;28;20042;-69
2023/12/30 01:25:08;;;;;;;114.90;60.83;;;;;;;;;;4992992;28;20022;-69
2023/12/30 01:27:34;;;;;;;121.15;62.92;;;;;;;;;;4991893;28;20535;-70
2023/12/30 01:30:00;;;;;;;124.35;61.90;;;;;;;;;;4991917;28;20058;-69
2023/12/30 01:32:25;;;;;;;109.88;56.35;;;;;;;;;;4991878;28;20502;-69
2023/12/30 01:34:51;;;;;;;101.78;55.05;;;;;;;;;;4991684;28;20064;-69
2023/12/30 01:37:17;;;;;;;97.85;55.42;;;;;;;;;;4991060;28;20181;-70
2023/12/30 01:39:43;;;;;;;89.95;50.47;;;;;;;;;;4993172;28;20030;-69
2023/12/30 01:42:09;;;;;;;75.55;45.03;;;;;;;;;;4975715;28;20515;-69
2023/12/30 01:44:35;;;;;;;81.20;48.50;;;;;;;;;;4991677;28;20038;-70
2023/12/30 01:47:01;;;;;;;88.57;49.17;;;;;;;;;;4993034;28;20050;-69
2023/12/30 01:49:27;;;;;;;90.40;47.40;;;;;;;;;;4992161;28;20113;-69
2023/12/30 01:51:53;;;;;;;84.32;46.60;;;;;;;;;;4993166;28;20038;-70
2023/12/30 01:54:21;;;;;;;78.78;45.63;;;;;;;;;;4992668;28;20113;-70
2023/12/30 01:56:50;;;;;;;75.30;43.30;;;;;;;;;;4993108;28;20030;-69
2023/12/30 01:59:18;;;;;;;70.45;39.92;;;;;;;;;;4991584;28;20061;-70
2023/12/30 02:01:45;;;;;;;72.95;41.45;;;;;;;;;;4991710;28;20101;-70
2023/12/30 02:04:11;;;;;;;73.03;41.80;;;;;;;;;;4992546;28;20046;-69
2023/12/30 02:06:39;;;;;;;79.30;42.97;;;;;;;;;;4991298;28;20041;-69
2023/12/30 02:09:06;;;;;;;87.63;47.55;;;;;;;;;;4991314;28;20061;-69
2023/12/30 02:11:32;;;;;;;93.80;50.67;;;;;;;;;;4988227;28;20030;-70
2023/12/30 02:13:57;;;;;;;83.30;44.90;;;;;;;;;;4986782;28;20097;-69
2023/12/30 02:16:23;;;;;;;71.95;42.35;;;;;;;;;;4992318;28;20026;-69
2023/12/30 02:18:49;;;;;;;71.63;46.28;;;;;;;;;;4987925;28;20038;-69
2023/12/30 02:21:14;;;;;;;67.63;43.67;;;;;;;;;;4991041;28;20035;-69
2023/12/30 02:23:40;;;;;;;76.53;45.00;;;;;;;;;;4974721;28;20022;-70
2023/12/30 02:26:07;;;;;;;77.10;45.42;;;;;;;;;;4992338;28;20045;-70
2023/12/30 02:28:33;;;;;;;74.00;44.75;;;;;;;;;;4991041;28;20034;-70
2023/12/30 02:30:59;;;;;;;71.55;42.42;;;;;;;;;;4992290;28;20030;-69
2023/12/30 02:33:25;;;;;;;68.32;42.70;;;;;;;;;;4992521;28;20085;-69
2023/12/30 02:35:51;;;;;;;66.93;42.30;;;;;;;;;;4991351;28;20101;-70
2023/12/30 02:38:17;;;;;;;75.90;43.65;;;;;;;;;;4991032;28;20038;-69
2023/12/30 02:40:44;;;;;;;69.93;40.72;;;;;;;;;;4992382;28;20041;-70
2023/12/30 02:43:10;;;;;;;64.88;39.30;;;;;;;;;;4991028;28;20076;-69
2023/12/30 02:45:35;;;;;;;68.60;38.10;;;;;;;;;;4992366;28;20031;-69
2023/12/30 02:48:01;;;;;;;72.53;40.78;;;;;;;;;;4991909;28;20057;-70
2023/12/30 02:50:27;;;;;;;67.03;37.85;;;;;;;;;;4996326;28;20042;-71
2023/12/30 02:52:52;;;;;;;76.88;42.72;;;;;;;;;;4996838;28;20034;-71
2023/12/30 02:55:18;;;;;;;73.35;41.88;;;;;;;;;;4976931;28;20061;-70
2023/12/30 02:57:43;;;;;;;65.40;37.10;;;;;;;;;;4990624;28;20134;-69
2023/12/30 03:00:10;;;;;;;80.10;44.72;;;;;;;;;;4991798;28;20068;-70
2023/12/30 03:02:37;;;;;;;76.88;43.80;;;;;;;;;;4994274;28;20034;-69
2023/12/30 03:05:03;;;;;;;76.93;44.10;;;;;;;;;;4995448;28;20117;-70
2023/12/30 03:07:28;;;;;;;69.50;42.05;;;;;;;;;;4995153;28;20106;-70
2023/12/30 03:09:54;;;;;;;70.93;43.30;;;;;;;;;;4994499;28;20042;-69
2023/12/30 03:12:20;;;;;;;72.63;40.38;;;;;;;;;;4994425;28;20030;-70
2023/12/30 03:14:45;;;;;;;67.03;37.70;;;;;;;;;;4994242;28;20034;-69
2023/12/30 03:17:11;;;;;;;62.95;37.95;;;;;;;;;;4995538;28;20132;-69
2023/12/30 03:19:37;;;;;;;64.13;36.38;;;;;;;;;;4994439;28;20072;-69
2023/12/30 03:22:03;;;;;;;63.55;37.28;;;;;;;;;;4994408;28;20396;-71
2023/12/30 03:24:28;;;;;;;63.15;38.10;;;;;;;;;;4994141;28;20045;-70
2023/12/30 03:26:54;;;;;;;69.25;40.08;;;;;;;;;;4995589;28;20026;-69
2023/12/30 03:29:20;;;;;;;69.57;37.88;;;;;;;;;;4994270;28;20042;-70
2023/12/30 03:31:46;;;;;;;56.40;34.55;;;;;;;;;;4995612;28;20120;-70
2023/12/30 03:34:12;;;;;;;46.58;29.65;;;;;;;;;;4995240;28;20516;-69
2023/12/30 03:36:37;;;;;;;55.55;35.15;;;;;;;;;;4993998;28;20460;-70
2023/12/30 03:39:05;;;;;;;51.47;32.00;;;;;;;;;;4995626;28;20089;-69
2023/12/30 03:41:31;;;;;;;49.28;28.05;;;;;;;;;;4994122;28;20030;-69
2023/12/30 03:43:56;;;;;;;59.45;31.60;;;;;;;;;;4993865;28;20030;-70
2023/12/30 03:46:23;;;;;;;59.53;35.40;;;;;;;;;;4994122;28;20034;-69
2023/12/30 03:48:49;;;;;;;59.95;35.83;;;;;;;;;;4994027;28;20258;-70
2023/12/30 03:51:14;;;;;;;60.28;37.67;;;;;;;;;;4994060;28;20046;-70
2023/12/30 03:53:41;;;;;;;62.92;37.92;;;;;;;;;;4993442;28;20030;-69
2023/12/30 03:56:06;;;;;;;60.53;34.03;;;;;;;;;;4983601;28;20054;-70
2023/12/30 03:58:32;;;;;;;55.78;32.97;;;;;;;;;;4993975;28;20093;-69
2023/12/30 04:00:58;;;;;;;55.83;32.83;;;;;;;;;;4993035;28;20034;-70
2023/12/30 04:03:24;;;;;;;53.75;31.60;;;;;;;;;;4994766;28;20507;-70
2023/12/30 04:05:49;;;;;;;62.97;38.03;;;;;;;;;;4993356;28;20042;-70
2023/12/30 04:08:15;;;;;;;63.53;36.40;;;;;;;;;;4993528;28;20041;-70
2023/12/30 04:10:41;;;;;;;63.30;36.33;;;;;;;;;;4994871;28;20023;-70
2023/12/30 04:13:06;;;;;;;59.60;33.00;;;;;;;;;;4994760;28;20066;-70
2023/12/30 04:15:32;;;;;;;54.80;32.35;;;;;;;;;;4993181;28;20030;-70
2023/12/30 04:17:58;;;;;;;43.65;26.60;;;;;;;;;;4993387;28;20437;-70
2023/12/30 04:20:24;;;;;;;44.80;26.20;;;;;;;;;;4993118;28;20445;-70
2023/12/30 04:22:49;;;;;;;46.42;29.08;;;;;;;;;;4993376;28;20034;-70
2023/12/30 04:25:15;;;;;;;47.90;29.25;;;;;;;;;;4992952;28;20023;-70
2023/12/30 04:27:41;;;;;;;48.63;29.33;;;;;;;;;;4993165;28;20412;-70
2023/12/30 04:30:07;;;;;;;42.97;27.38;;;;;;;;;;4993035;28;20081;-70
2023/12/30 04:32:32;;;;;;;41.17;27.10;;;;;;;;;;4992860;28;20089;-70
2023/12/30 04:34:58;;;;;;;40.20;25.60;;;;;;;;;;4976615;28;20396;-69
2023/12/30 04:37:24;;;;;;;41.20;25.58;;;;;;;;;;4993051;28;20035;-69
2023/12/30 04:39:50;;;;;;;44.33;25.02;;;;;;;;;;4993042;28;20497;-70
2023/12/30 04:42:15;;;;;;;38.90;24.95;;;;;;;;;;4994207;28;20057;-70
2023/12/30 04:44:41;;;;;;;45.75;26.52;;;;;;;;;;4992708;28;20400;-70
2023/12/30 04:47:07;;;;;;;40.67;25.73;;;;;;;;;;4992660;28;20439;-70
2023/12/30 04:49:33;;;;;;;42.15;27.38;;;;;;;;;;4992646;28;20027;-69
2023/12/30 04:51:59;;;;;;;49.78;26.15;;;;;;;;;;4992723;28;20129;-70
2023/12/30 04:54:30;;;;;;;40.25;23.85;;;;;;;;;;4992610;28;20164;-69
2023/12/30 04:56:56;;;;;;;39.00;24.95;;;;;;;;;;4993063;28;20504;-71
2023/12/30 04:59:22;;;;;;;44.10;26.67;;;;;;;;;;4992868;28;20639;-69
2023/12/30 05:01:47;;;;;;;42.78;26.63;;;;;;;;;;4992392;28;20109;-70
2023/12/30 05:04:13;;;;;;;38.58;23.45;;;;;;;;;;4992385;28;20046;-70
2023/12/30 05:06:39;;;;;;;34.90;21.58;;;;;;;;;;4992497;28;20038;-69
2023/12/30 05:09:05;;;;;;;39.60;20.92;;;;;;;;;;4993307;28;20038;-70
2023/12/30 05:11:31;;;;;;;31.20;18.70;;;;;;;;;;4992758;28;20121;-70
2023/12/30 05:13:57;;;;;;;32.38;18.38;;;;;;;;;;4993215;28;20105;-69
2023/12/30 05:16:22;;;;;;;34.80;19.88;;;;;;;;;;4993249;28;20065;-69
2023/12/30 05:18:48;;;;;;;41.50;27.20;;;;;;;;;;4993410;28;20084;-70
2023/12/30 05:21:15;;;;;;;50.50;30.75;;;;;;;;;;4993278;28;20531;-70
2023/12/30 05:23:41;;;;;;;64.30;34.63;;;;;;;;;;4993063;28;20053;-70
2023/12/30 05:26:07;;;;;;;53.45;30.17;;;;;;;;;;4993239;28;20506;-70
2023/12/30 05:28:33;;;;;;;46.05;29.45;;;;;;;;;;4993285;28;20496;-70
2023/12/30 05:30:59;;;;;;;48.28;28.73;;;;;;;;;;4993088;28;20120;-70
2023/12/30 05:33:25;;;;;;;43.55;25.98;;;;;;;;;;4993246;28;20232;-69
2023/12/30 05:35:52;;;;;;;45.70;27.50;;;;;;;;;;4992899;28;20030;-71
2023/12/30 05:38:18;;;;;;;51.42;28.77;;;;;;;;;;4993327;28;20038;-69
2023/12/30 05:40:44;;;;;;;55.08;33.55;;;;;;;;;;4993039;28;20526;-70
2023/12/30 05:43:09;;;;;;;47.33;29.83;;;;;;;;;;4992804;28;20559;-70
2023/12/30 05:45:35;;;;;;;48.95;27.67;;;;;;;;;;4991502;28;20034;-70
2023/12/30 05:48:02;;;;;;;41.35;25.38;;;;;;;;;;4993184;28;20050;-70
2023/12/30 05:50:28;;;;;;;37.35;22.42;;;;;;;;;;4992958;28;20101;-69
2023/12/30 05:52:55;;;;;;;41.92;24.08;;;;;;;;;;4986821;28;20077;-70
2023/12/30 05:55:21;;;;;;;50.92;27.33;;;;;;;;;;4979481;28;20042;-68
2023/12/30 05:57:47;;;;;;;46.00;23.52;;;;;;;;;;4990750;28;20022;-70
2023/12/30 06:00:19;;;;;;;48.33;25.63;;;;;;;;;;4989457;28;20057;-72
2023/12/30 06:02:45;;;;;;;47.38;25.15;;;;;;;;;;4991932;28;20030;-71
2023/12/30 06:05:11;;;;;;;43.50;23.17;;;;;;;;;;4991859;28;20053;-73
2023/12/30 06:07:40;;;;;;;45.03;22.45;;;;;;;;;;4992297;28;20030;-71
2023/12/30 06:10:07;;;;;;;39.13;19.77;;;;;;;;;;4992116;28;20034;-72
2023/12/30 06:12:33;;;;;;;37.45;20.25;;;;;;;;;;4983166;28;20026;-72
2023/12/30 06:14:59;;;;;;;35.10;20.08;;;;;;;;;;4988083;28;20045;-71
2023/12/30 06:17:25;;;;;;;33.38;19.52;;;;;;;;;;4991885;28;20369;-72
2023/12/30 06:19:50;;;;;;;32.08;18.00;;;;;;;;;;4990741;28;20030;-72
2023/12/30 06:22:16;;;;;;;28.05;18.23;;;;;;;;;;4991305;28;20042;-72
2023/12/30 06:24:42;;;;;;;33.50;19.58;;;;;;;;;;4991470;28;20118;-71
2023/12/30 06:27:07;;;;;;;31.35;19.05;;;;;;;;;;4991599;28;20030;-71
2023/12/30 06:29:33;;;;;;;41.05;22.42;;;;;;;;;;4991668;28;20152;-72
2023/12/30 06:31:59;;;;;;;41.63;22.02;;;;;;;;;;4991766;28;20045;-72
2023/12/30 06:34:24;;;;;;;39.25;21.23;;;;;;;;;;4991287;28;20037;-71
2023/12/30 06:36:50;;;;;;;37.38;21.65;;;;;;;;;;4991562;28;20551;-71
2023/12/30 06:39:17;;;;;;;35.80;19.00;;;;;;;;;;4991260;28;20112;-72
2023/12/30 06:41:43;;;;;;;32.70;20.02;;;;;;;;;;4991534;28;20097;-71
2023/12/30 06:44:08;;;;;;;34.25;19.92;;;;;;;;;;4991440;28;20437;-71
2023/12/30 06:46:35;;;;;;;34.45;19.83;;;;;;;;;;4984099;28;20034;-72
2023/12/30 06:49:01;;;;;;;31.13;21.75;;;;;;;;;;4991309;28;20301;-72
2023/12/30 06:51:28;;;;;;;41.15;26.05;;;;;;;;;;4991479;28;20483;-71
2023/12/30 06:53:54;;;;;;;28.83;19.40;;;;;;;;;;4991504;28;20038;-70
2023/12/30 06:56:20;;;;;;;29.95;18.77;;;;;;;;;;4990754;28;20647;-71
2023/12/30 06:58:46;;;;;;;32.45;20.58;;;;;;;;;;4991720;28;20023;-70
2023/12/30 07:01:12;;;;;;;28.70;20.15;;;;;;;;;;4991179;28;20097;-71
2023/12/30 07:03:38;;;;;;;37.08;21.98;;;;;;;;;;4990825;28;20033;-72
2023/12/30 07:06:04;;;;;;;39.47;22.48;;;;;;;;;;4991158;28;20030;-70
2023/12/30 07:08:30;;;;;;;33.50;21.23;;;;;;;;;;4990613;28;20101;-71
2023/12/30 07:10:55;;;;;;;36.45;21.90;;;;;;;;;;4991158;28;20038;-71
2023/12/30 07:13:21;;;;;;;32.15;21.25;;;;;;;;;;4990976;28;20038;-72
2023/12/30 07:15:50;;;;;;;47.95;25.67;;;;;;;;;;4990561;28;20034;-72
2023/12/30 07:18:16;;;;;;;50.13;30.38;;;;;;;;;;5005907;28;20022;-71
2023/12/30 07:20:42;;;;;;;53.17;30.08;;;;;;;;;;4990937;28;20126;-72
2023/12/30 07:23:08;;;;;;;59.13;30.60;;;;;;;;;;4990755;28;20047;-72
2023/12/30 07:25:35;;;;;;;49.65;29.45;;;;;;;;;;4990455;28;20105;-72
2023/12/30 07:28:00;;;;;;;50.53;30.38;;;;;;;;;;4990185;28;20042;-72
2023/12/30 07:30:26;;;;;;;51.83;30.05;;;;;;;;;;4989759;28;20400;-72
2023/12/30 07:32:52;;;;;;;47.30;31.50;;;;;;;;;;4990621;28;20081;-72
2023/12/30 07:35:18;;;;;;;51.50;29.17;;;;;;;;;;4991413;28;20057;-72
2023/12/30 07:37:46;;;;;;;48.42;28.90;;;;;;;;;;4993758;28;20120;-71
2023/12/30 07:40:12;;;;;;;45.80;27.33;;;;;;;;;;4994095;28;20038;-71
2023/12/30 07:42:38;;;;;;;48.63;29.77;;;;;;;;;;4992762;28;20026;-72
2023/12/30 07:45:06;;;;;;;52.88;30.13;;;;;;;;;;4990402;28;20129;-73
2023/12/30 07:47:34;;;;;;;54.33;30.83;;;;;;;;;;4994181;28;20037;-72
2023/12/30 07:50:02;;;;;;;50.10;31.17;;;;;;;;;;4994438;28;20034;-72
2023/12/30 07:52:28;;;;;;;53.03;31.15;;;;;;;;;;5001050;28;20121;-72
2023/12/30 07:54:54;;;;;;;50.17;29.02;;;;;;;;;;5007284;28;20057;-71
2023/12/30 07:57:20;;;;;;;47.20;29.02;;;;;;;;;;4997539;28;20333;-71
2023/12/30 07:59:46;;;;;;;50.35;29.52;;;;;;;;;;5000992;28;20034;-73
2023/12/30 08:02:12;;;;;;;51.78;29.45;;;;;;;;;;5009869;28;20511;-71
2023/12/30 08:04:41;;;;;;;47.67;29.17;;;;;;;;;;5002619;28;20022;-71
2023/12/30 08:07:06;;;;;;;51.47;29.42;;;;;;;;;;4997376;28;20026;-71
2023/12/30 08:09:32;;;;;;;47.63;29.45;;;;;;;;;;5003847;28;20365;-70
2023/12/30 08:11:57;;;;;;;51.65;32.50;;;;;;;;;;5002080;28;20181;-71
2023/12/30 08:14:23;;;;;;;46.95;31.10;;;;;;;;;;4999095;28;20045;-70
2023/12/30 08:16:49;;;;;;;50.72;31.20;;;;;;;;;;5001605;28;20030;-71
2023/12/30 08:19:16;;;;;;;53.83;33.08;;;;;;;;;;4988515;28;20460;-71
2023/12/30 08:21:41;;;;;;;50.42;31.35;;;;;;;;;;4981853;28;20121;-72
2023/12/30 08:24:07;;;;;;;58.92;30.88;;;;;;;;;;5001070;28;20643;-72
2023/12/30 08:26:33;;;;;;;55.67;31.60;;;;;;;;;;4995008;28;20116;-71
2023/12/30 08:28:59;;;;;;;47.42;30.55;;;;;;;;;;5009329;28;20427;-71
2023/12/30 08:31:24;;;;;;;55.20;30.67;;;;;;;;;;4996425;28;20034;-71
2023/12/30 08:33:51;;;;;;;50.15;30.38;;;;;;;;;;5006564;28;20030;-71
2023/12/30 08:36:17;;;;;;;50.83;30.10;;;;;;;;;;4999969;28;20102;-71
2023/12/30 08:38:43;;;;;;;37.40;23.48;;;;;;;;;;5004130;28;20033;-71
2023/12/30 08:41:14;;;;;;;37.03;23.70;;;;;;;;;;5011075;28;20029;-70
2023/12/30 08:43:43;;;;;;;38.80;24.08;;;;;;;;;;5010977;28;20037;-70
2023/12/30 08:46:10;;;;;;;36.53;23.35;;;;;;;;;;5005348;28;20041;-70
2023/12/30 08:48:36;;;;;;;37.08;23.10;;;;;;;;;;4992065;28;20026;-70
2023/12/30 08:51:02;;;;;;;39.83;22.88;;;;;;;;;;4998353;28;20555;-70
2023/12/30 08:53:28;;;;;;;41.42;25.10;;;;;;;;;;5011946;28;20121;-70
2023/12/30 08:55:55;;;;;;;44.28;27.00;;;;;;;;;;4999166;28;20117;-70
2023/12/30 08:58:26;;;;;;;42.50;26.40;;;;;;;;;;4992386;28;20050;-70
2023/12/30 09:00:52;;;;;;;44.65;25.83;;;;;;;;;;4993465;28;20034;-70
2023/12/30 09:03:18;;;;;;;50.28;28.17;;;;;;;;;;4992971;28;20046;-70
2023/12/30 09:05:44;;;;;;;50.15;27.00;;;;;;;;;;4992839;28;20061;-70
2023/12/30 09:08:10;;;;;;;56.25;26.65;;;;;;;;;;4993225;28;20149;-71
2023/12/30 09:10:37;;;;;;;43.22;26.33;;;;;;;;;;4993504;28;20194;-70
2023/12/30 09:13:03;;;;;;;45.80;27.90;;;;;;;;;;4993193;28;20123;-69
2023/12/30 09:15:29;;;;;;;47.92;27.17;;;;;;;;;;4992960;28;20038;-70
2023/12/30 09:17:58;;;;;;;44.55;28.20;;;;;;;;;;4991688;28;20034;-69
2023/12/30 09:20:24;;;;;;;52.17;31.25;;;;;;;;;;4993238;28;20085;-71
2023/12/30 09:22:51;;;;;;;53.25;31.35;;;;;;;;;;4993157;28;20586;-71
2023/12/30 09:25:16;;;;;;;56.47;28.55;;;;;;;;;;4993081;28;20027;-71
2023/12/30 09:27:42;;;;;;;48.75;28.83;;;;;;;;;;4989750;28;20470;-70
2023/12/30 09:30:08;;;;;;;50.58;29.73;;;;;;;;;;4992385;28;20034;-69
2023/12/30 09:32:34;;;;;;;47.65;27.33;;;;;;;;;;4992575;28;20026;-69
2023/12/30 09:35:02;;;;;;;50.63;27.60;;;;;;;;;;4987203;28;20041;-71
2023/12/30 09:37:28;;;;;;;53.72;30.52;;;;;;;;;;4989699;28;20101;-71
2023/12/30 09:39:54;;;;;;;57.42;29.98;;;;;;;;;;4992661;28;20121;-70
2023/12/30 09:42:20;;;;;;;55.90;30.30;;;;;;;;;;4991885;28;20042;-71
2023/12/30 09:44:50;;;;;;;51.85;31.10;;;;;;;;;;4992530;28;20034;-71
2023/12/30 09:47:17;;;;;;;54.78;31.30;;;;;;;;;;4992695;28;20077;-71
2023/12/30 09:49:44;;;;;;;50.85;30.60;;;;;;;;;;4992533;28;20400;-70
2023/12/30 09:52:10;;;;;;;50.78;32.05;;;;;;;;;;4992378;28;20171;-71
2023/12/30 09:54:38;;;;;;;51.38;33.05;;;;;;;;;;4992231;28;20056;-71
2023/12/30 09:57:05;;;;;;;54.20;31.23;;;;;;;;;;4992295;28;20042;-70
2023/12/30 09:59:35;;;;;;;51.08;32.10;;;;;;;;;;4991619;28;20084;-70
2023/12/30 10:02:03;;;;;;;51.28;32.70;;;;;;;;;;4991874;28;20073;-70
2023/12/30 10:04:28;;;;;;;62.35;35.60;;;;;;;;;;4991579;28;20489;-70
2023/12/30 10:06:55;;;;;;;52.75;33.50;;;;;;;;;;4992061;28;20095;-71
2023/12/30 10:09:22;;;;;;;57.65;36.45;;;;;;;;;;4992316;28;20053;-71
2023/12/30 10:11:49;;;;;;;64.30;35.38;;;;;;;;;;4992121;28;20551;-70
2023/12/30 10:14:15;;;;;;;56.35;36.22;;;;;;;;;;4991434;28;20488;-72
2023/12/30 10:16:41;;;;;;;65.55;37.25;;;;;;;;;;4992156;28;20091;-72
2023/12/30 10:19:11;;;;;;;60.13;36.97;;;;;;;;;;4992034;28;20554;-71
2023/12/30 10:21:39;;;;;;;64.20;36.85;;;;;;;;;;4990854;28;20120;-71
2023/12/30 10:24:06;;;;;;;64.80;37.20;;;;;;;;;;4991748;28;20049;-71
2023/12/30 10:26:37;;;;;;;60.85;35.50;;;;;;;;;;4991689;28;20488;-71
2023/12/30 10:29:05;;;;;;;57.47;35.13;;;;;;;;;;4991733;28;20050;-72
2023/12/30 10:31:30;;;;;;;59.80;35.88;;;;;;;;;;4992798;28;20064;-70
2023/12/30 10:33:56;;;;;;;57.03;35.22;;;;;;;;;;4992251;28;20034;-72
2023/12/30 10:36:22;;;;;;;61.30;36.25;;;;;;;;;;4991908;28;20077;-71
2023/12/30 10:38:52;;;;;;;66.45;38.28;;;;;;;;;;4990820;28;20567;-70
2023/12/30 10:41:18;;;;;;;57.90;35.15;;;;;;;;;;4991726;28;20121;-72
2023/12/30 10:43:44;;;;;;;64.18;36.45;;;;;;;;;;4991780;28;20246;-71
2023/12/30 10:46:11;;;;;;;60.05;36.28;;;;;;;;;;4990736;28;20076;-71
2023/12/30 10:48:46;;;;;;;56.40;35.90;;;;;;;;;;4992083;28;20133;-71
2023/12/30 10:51:15;;;;;;;59.70;35.92;;;;;;;;;;4991789;28;20038;-71
2023/12/30 10:53:47;;;;;;;57.72;34.78;;;;;;;;;;4991889;28;20101;-71
2023/12/30 10:56:16;;;;;;;56.92;36.30;;;;;;;;;;4992446;28;20030;-70
2023/12/30 10:58:43;;;;;;;93.57;39.08;;;;;;;;;;4992207;28;20481;-71
2023/12/30 11:01:09;;;;;;;54.25;34.45;;;;;;;;;;4992434;28;20084;-70
2023/12/30 11:03:35;;;;;;;51.65;31.73;;;;;;;;;;4991836;28;20034;-72
2023/12/30 11:06:04;;;;;;;46.67;29.35;;;;;;;;;;4991373;28;20532;-71
2023/12/30 11:08:30;;;;;;;47.72;27.20;;;;;;;;;;4990843;28;20404;-72
2023/12/30 11:11:00;;;;;;;42.42;26.25;;;;;;;;;;4992603;28;20030;-71
2023/12/30 11:13:26;;;;;;;67.28;37.00;;;;;;;;;;4995261;28;20081;-70
2023/12/30 11:15:52;;;;;;;41.08;27.80;;;;;;;;;;4993880;28;20042;-71
2023/12/30 11:18:58;;;;;;;40.08;25.65;;;;;;;;;;4993988;28;20078;-71
2023/12/30 11:21:42;;;;;;;39.90;25.13;;;;;;;;;;4995190;28;20040;-72
2023/12/30 11:24:09;;;;;;;;;;;;;;;;;;4995545;28;20034;-72
2023/12/30 11:26:37;;;;;;;38.83;24.25;;;;;;;;;;4994988;28;20247;-70
2023/12/30 11:29:03;;;;;;;44.05;23.08;;;;;;;;;;4994500;28;20042;-71
2023/12/30 11:31:37;;;;;;;39.00;22.58;;;;;;;;;;4993151;28;20049;-71
2023/12/30 11:34:04;;;;;;;38.78;24.13;;;;;;;;;;4994510;28;20500;-71
2023/12/30 11:36:31;;;;;;;39.00;24.63;;;;;;;;;;4994622;28;20177;-71
2023/12/30 11:38:59;;;;;;;39.33;24.23;;;;;;;;;;4993581;28;20037;-71
2023/12/30 11:41:27;;;;;;;40.28;26.63;;;;;;;;;;4994832;28;20086;-71
2023/12/30 11:43:59;;;;;;;41.83;26.30;;;;;;;;;;4994385;28;20416;-71
2023/12/30 11:46:26;;;;;;;39.38;26.77;;;;;;;;;;4995189;28;20023;-71
2023/12/30 11:48:52;;;;;;;44.28;28.48;;;;;;;;;;4995006;28;20180;-71
2023/12/30 11:51:29;;;;;;;45.90;29.15;;;;;;;;;;4995262;28;20101;-71
2023/12/30 11:53:55;;;;;;;48.75;30.23;;;;;;;;;;4994638;28;20188;-71
2023/12/30 11:56:22;;;;;;;53.00;31.92;;;;;;;;;;4994436;28;20493;-71
2023/12/30 11:58:49;;;;;;;58.20;31.42;;;;;;;;;;4994959;28;20491;-72
2023/12/30 12:01:15;;;;;;;44.55;26.77;;;;;;;;;;4994445;28;20169;-71
2023/12/30 12:03:41;;;;;;;40.70;25.63;;;;;;;;;;4994758;28;20046;-71
2023/12/30 12:06:10;;;;;;;39.65;24.50;;;;;;;;;;4994608;28;20025;-71
2023/12/30 12:08:36;;;;;;;47.25;26.88;;;;;;;;;;4994476;28;20038;-71
2023/12/30 12:11:02;;;;;;;45.75;27.67;;;;;;;;;;4994202;28;20038;-70
2023/12/30 12:13:28;;;;;;;52.85;28.15;;;;;;;;;;4994508;28;20038;-72
2023/12/30 12:15:56;;;;;;;54.25;32.00;;;;;;;;;;4994470;28;20387;-70
2023/12/30 12:18:23;;;;;;;42.03;26.30;;;;;;;;;;4994606;28;20125;-71
2023/12/30 12:20:50;;;;;;;41.22;25.70;;;;;;;;;;4993839;28;20034;-71
2023/12/30 12:23:18;;;;;;;38.45;24.52;;;;;;;;;;4994107;28;20075;-71
2023/12/30 12:25:45;;;;;;;41.75;24.05;;;;;;;;;;4991476;28;20110;-72
2023/12/30 12:28:23;;;;;;;49.53;25.33;;;;;;;;;;4993522;28;20531;-71
2023/12/30 12:30:50;;;;;;;75.03;40.22;;;;;;;;;;4992569;28;20512;-70
2023/12/30 12:33:18;;;;;;;73.22;25.90;;;;;;;;;;4993950;28;20064;-70
2023/12/30 12:35:44;;;;;;;71.60;22.52;;;;;;;;;;4985681;28;20027;-71
2023/12/30 12:38:10;;;;;;;87.88;28.60;;;;;;;;;;4993613;28;20034;-70
2023/12/30 12:40:38;;;;;;;66.68;27.05;;;;;;;;;;4985400;28;20101;-71
2023/12/30 12:43:04;;;;;;;57.13;27.35;;;;;;;;;;4993855;28;20519;-71
2023/12/30 12:45:30;;;;;;;51.72;29.20;;;;;;;;;;4992298;28;20065;-72
2023/12/30 12:47:56;;;;;;;44.28;28.00;;;;;;;;;;4993935;28;20061;-71
2023/12/30 12:50:22;;;;;;;61.33;34.25;;;;;;;;;;4993820;28;20037;-70
2023/12/30 12:52:47;;;;;;;51.05;30.80;;;;;;;;;;4994282;28;20034;-70
2023/12/30 12:55:13;;;;;;;48.35;30.45;;;;;;;;;;4994437;28;20037;-72
2023/12/30 12:57:40;;;;;;;55.10;31.45;;;;;;;;;;4994003;28;20129;-72
2023/12/30 13:00:08;;;;;;;54.45;32.97;;;;;;;;;;4993851;28;20104;-71
2023/12/30 13:02:35;;;;;;;54.80;31.45;;;;;;;;;;4994480;28;20038;-71
2023/12/30 13:05:02;;;;;;;49.28;31.35;;;;;;;;;;4993271;28;20078;-72
2023/12/30 13:07:27;;;;;;;50.33;32.67;;;;;;;;;;4993959;28;20030;-71
2023/12/30 13:09:53;;;;;;;49.58;31.40;;;;;;;;;;4993550;28;20049;-71
2023/12/30 13:12:20;;;;;;;49.83;31.98;;;;;;;;;;4993494;28;20069;-70
2023/12/30 13:14:46;;;;;;;56.90;32.65;;;;;;;;;;4993437;28;20502;-71
2023/12/30 13:17:12;;;;;;;52.03;30.55;;;;;;;;;;4993247;28;20035;-71
2023/12/30 13:19:41;;;;;;;48.80;32.17;;;;;;;;;;4993434;28;20036;-71
2023/12/30 13:22:08;;;;;;;57.92;32.58;;;;;;;;;;4993009;28;20057;-71
2023/12/30 13:24:33;;;;;;;57.80;30.35;;;;;;;;;;4993191;28;20073;-71
2023/12/30 13:26:59;;;;;;;48.60;28.90;;;;;;;;;;4993233;28;20574;-72
2023/12/30 13:29:26;;;;;;;50.00;28.85;;;;;;;;;;4993351;28;20060;-72
2023/12/30 13:31:55;;;;;;;51.92;29.90;;;;;;;;;;4992967;28;20117;-73
2023/12/30 13:34:21;;;;;;;50.95;30.35;;;;;;;;;;4992205;28;20034;-71
2023/12/30 13:36:48;;;;;;;47.58;29.10;;;;;;;;;;4993050;28;20448;-71
2023/12/30 13:39:15;;;;;;;50.50;30.48;;;;;;;;;;4993401;28;20353;-71
2023/12/30 13:41:41;;;;;;;49.83;30.40;;;;;;;;;;4993342;28;20075;-71
2023/12/30 13:44:13;;;;;;;43.95;28.33;;;;;;;;;;4992866;28;20061;-71
2023/12/30 13:46:58;;;;;;;51.40;28.85;;;;;;;;;;4993059;28;20030;-72
2023/12/30 13:52:08;;;;;;;48.25;30.45;;;;;;;;;;4991267;28;20054;-69
2023/12/30 13:54:34;;;;;;;46.40;27.45;;;;;;;;;;4992792;28;20069;-70
2023/12/30 13:57:11;;;;;;;46.15;28.65;;;;;;;;;;4988062;28;20480;-70
2023/12/30 13:59:37;;;;;;;41.25;26.73;;;;;;;;;;4990256;28;20056;-72
2023/12/30 14:02:03;;;;;;;44.72;27.70;;;;;;;;;;4992350;28;20105;-71
2023/12/30 14:04:30;;;;;;;50.00;30.95;;;;;;;;;;4992323;28;20452;-72
2023/12/30 14:07:00;;;;;;;53.83;32.67;;;;;;;;;;4992079;28;20077;-71
2023/12/30 14:09:49;;;;;;;60.72;36.80;;;;;;;;;;4992084;28;20065;-72
2023/12/30 14:12:15;;;;;;;73.68;38.67;;;;;;;;;;5002311;28;20034;-71
2023/12/30 14:14:44;;;;;;;69.40;39.03;;;;;;;;;;4988419;28;20077;-71
2023/12/30 14:17:10;;;;;;;76.47;40.85;;;;;;;;;;4991459;28;20528;-71